createdAt,value
2018-08-19T00:02:18.147Z,3.90
2018-08-19T00:05:02.862Z,5.40
2018-08-19T00:07:32.082Z,5.37
2018-08-19T00:10:01.202Z,6.10
2018-08-19T00:12:44.993Z,6.93
2018-08-19T00:15:14.738Z,6.57
2018-08-19T00:17:44.074Z,6.97
2018-08-19T00:20:14.262Z,6.50
2018-08-19T00:22:43.534Z,6.07
2018-08-19T00:25:22.735Z,5.93
2018-08-19T00:27:51.849Z,6.47
2018-08-19T00:30:20.914Z,5.90
2018-08-19T00:32:50.141Z,6.50
2018-08-19T00:35:19.250Z,6.00
2018-08-19T00:37:48.358Z,5.53
2018-08-19T00:40:17.489Z,5.83
2018-08-19T00:42:46.659Z,5.50
2018-08-19T00:45:16.943Z,4.83
2018-08-19T00:47:46.478Z,4.37
2018-08-19T00:50:15.648Z,4.17
2018-08-19T00:52:44.797Z,5.07
2018-08-19T00:55:13.938Z,4.30
2018-08-19T00:57:45.855Z,4.20
2018-08-19T01:00:14.974Z,3.93
2018-08-19T01:02:44.177Z,4.40
2018-08-19T01:05:13.428Z,5.23
2018-08-19T01:07:42.817Z,4.53
2018-08-19T01:10:12.073Z,4.83
2018-08-19T01:12:41.425Z,4.80
2018-08-19T01:15:12.890Z,4.80
2018-08-19T01:17:43.085Z,4.63
2018-08-19T01:20:16.341Z,5.13
2018-08-19T01:22:45.667Z,4.90
2018-08-19T01:25:15.522Z,5.10
2018-08-19T01:27:44.723Z,4.40
2018-08-19T01:30:19.373Z,4.57
2018-08-19T01:32:48.564Z,4.50
2018-08-19T01:35:18.074Z,4.63
2018-08-19T01:37:47.261Z,4.47
2018-08-19T01:40:18.582Z,4.53
2018-08-19T01:42:48.238Z,3.73
2018-08-19T01:45:17.353Z,4.20
2018-08-19T01:47:46.465Z,4.87
2018-08-19T01:50:17.006Z,4.67
2018-08-19T01:52:49.031Z,4.77
2018-08-19T01:55:18.792Z,4.40
2018-08-19T01:57:49.168Z,4.93
2018-08-19T02:00:18.781Z,5.03
2018-08-19T02:02:56.677Z,4.57
2018-08-19T02:05:26.248Z,4.70
2018-08-19T02:08:01.557Z,4.83
2018-08-19T02:10:32.086Z,5.37
2018-08-19T02:13:01.702Z,4.77
2018-08-19T02:15:31.967Z,5.40
2018-08-19T02:18:05.121Z,4.93
2018-08-19T02:20:40.388Z,5.73
2018-08-19T02:23:13.628Z,5.40
2018-08-19T02:25:45.465Z,5.03
2018-08-19T02:28:16.566Z,5.20
2018-08-19T02:30:52.055Z,6.03
2018-08-19T02:33:22.340Z,5.50
2018-08-19T02:36:04.852Z,5.10
2018-08-19T02:38:34.177Z,4.73
2018-08-19T02:41:03.464Z,4.83
2018-08-19T02:43:32.551Z,4.80
2018-08-19T02:46:01.686Z,4.57
2018-08-19T02:48:42.971Z,4.93
2018-08-19T02:51:13.754Z,5.30
2018-08-19T02:53:44.250Z,5.90
2018-08-19T02:56:14.017Z,5.60
2018-08-19T02:58:44.074Z,5.40
2018-08-19T03:01:14.303Z,5.37
2018-08-19T03:03:43.493Z,5.67
2018-08-19T03:06:12.778Z,4.80
2018-08-19T03:08:47.469Z,4.87
2018-08-19T03:11:21.245Z,4.67
2018-08-19T03:13:50.458Z,4.50
2018-08-19T03:16:19.582Z,5.63
2018-08-19T03:18:50.321Z,5.70
2018-08-19T03:21:20.286Z,5.00
2018-08-19T03:23:50.568Z,5.03
2018-08-19T03:26:19.779Z,5.57
2018-08-19T03:28:48.948Z,5.40
2018-08-19T03:31:18.024Z,5.27
2018-08-19T03:33:47.188Z,4.80
2018-08-19T03:36:16.335Z,4.30
2018-08-19T03:38:45.463Z,4.70
2018-08-19T03:41:14.561Z,4.60
2018-08-19T03:43:47.937Z,4.97
2018-08-19T03:46:20.363Z,5.00
2018-08-19T03:48:49.675Z,4.73
2018-08-19T03:51:18.802Z,5.00
2018-08-19T03:53:47.973Z,4.70
2018-08-19T03:56:22.390Z,5.17
2018-08-19T03:58:53.003Z,4.97
2018-08-19T04:01:33.502Z,4.93
2018-08-19T04:04:02.875Z,5.10
2018-08-19T04:06:31.962Z,4.90
2018-08-19T04:09:01.076Z,4.90
2018-08-19T04:11:30.466Z,4.63
2018-08-19T04:13:59.630Z,4.97
2018-08-19T04:16:28.773Z,4.97
2018-08-19T04:19:06.255Z,5.83
2018-08-19T04:21:35.359Z,4.73
2018-08-19T04:24:04.429Z,5.33
2018-08-19T04:26:33.704Z,4.60
2018-08-19T04:29:05.243Z,5.73
2018-08-19T04:31:34.708Z,5.13
2018-08-19T04:34:03.799Z,5.57
2018-08-19T04:36:32.811Z,5.37
2018-08-19T04:39:01.953Z,5.03
2018-08-19T04:41:31.103Z,5.20
2018-08-19T04:44:00.202Z,4.80
2018-08-19T04:46:29.593Z,5.33
2018-08-19T04:48:58.642Z,5.20
2018-08-19T04:51:27.698Z,5.07
2018-08-19T04:53:56.806Z,4.90
2018-08-19T04:56:25.991Z,5.00
2018-08-19T04:58:55.164Z,5.03
2018-08-19T05:01:24.262Z,5.53
2018-08-19T05:03:53.453Z,5.13
2018-08-19T05:06:22.549Z,6.53
2018-08-19T05:08:51.645Z,5.60
2018-08-19T05:11:20.832Z,5.40
2018-08-19T05:13:49.888Z,5.43
2018-08-19T05:16:18.980Z,5.80
2018-08-19T05:18:53.451Z,5.90
2018-08-19T05:21:25.992Z,6.20
2018-08-19T05:23:55.082Z,6.30
2018-08-19T05:26:24.437Z,6.13
2018-08-19T05:29:05.385Z,6.47
2018-08-19T05:31:39.232Z,6.30
2018-08-19T05:34:16.712Z,6.60
2018-08-19T05:36:48.730Z,6.30
2018-08-19T05:39:18.278Z,6.37
2018-08-19T05:42:02.305Z,6.30
2018-08-19T05:44:33.709Z,6.63
2018-08-19T05:47:04.594Z,6.20
2018-08-19T05:49:35.257Z,6.53
2018-08-19T05:52:06.603Z,6.00
2018-08-19T05:54:39.978Z,6.63
2018-08-19T05:57:09.460Z,7.13
2018-08-19T05:59:38.683Z,7.07
2018-08-19T06:02:07.971Z,7.20
2018-08-19T06:04:37.281Z,6.67
2018-08-19T06:07:06.894Z,7.43
2018-08-19T06:09:36.365Z,7.17
2018-08-19T06:12:05.522Z,6.53
2018-08-19T06:14:34.595Z,6.70
2018-08-19T06:17:04.994Z,6.13
2018-08-19T06:19:34.567Z,5.93
2018-08-19T06:22:03.802Z,6.17
2018-08-19T06:24:32.970Z,5.78
2018-08-19T06:27:02.110Z,6.40
2018-08-19T06:29:43.423Z,6.15
2018-08-19T06:32:20.548Z,6.60
2018-08-19T06:34:50.879Z,6.33
2018-08-19T06:37:21.089Z,5.90
2018-08-19T06:39:51.349Z,6.00
2018-08-19T06:42:21.137Z,5.97
2018-08-19T06:44:50.349Z,6.00
2018-08-19T06:47:19.506Z,5.70
2018-08-19T06:49:52.666Z,6.20
2018-08-19T06:52:22.489Z,6.20
2018-08-19T06:54:51.584Z,5.70
2018-08-19T06:57:20.821Z,5.40
2018-08-19T06:59:50.061Z,6.10
2018-08-19T07:02:22.116Z,6.00
2018-08-19T07:04:51.293Z,5.70
2018-08-19T07:07:20.951Z,5.95
2018-08-19T07:09:50.095Z,5.75
2018-08-19T07:12:21.380Z,5.67
2018-08-19T07:14:50.745Z,5.75
2018-08-19T07:17:20.260Z,4.85
2018-08-19T07:19:49.622Z,5.28
2018-08-19T07:22:20.081Z,5.22
2018-08-19T07:24:49.215Z,5.30
2018-08-19T07:27:18.304Z,5.53
2018-08-19T07:29:47.446Z,5.03
2018-08-19T07:32:16.689Z,4.55
2018-08-19T07:34:45.827Z,4.75
2018-08-19T07:37:14.961Z,3.77
2018-08-19T07:39:49.319Z,4.58
2018-08-19T07:42:18.422Z,4.58
2018-08-19T07:44:47.480Z,4.60
2018-08-19T07:47:16.590Z,4.72
2018-08-19T07:49:45.682Z,4.00
2018-08-19T07:52:14.852Z,4.30
2018-08-19T07:54:43.933Z,4.53
2018-08-19T07:57:21.772Z,4.60
2018-08-19T07:59:50.824Z,5.00
2018-08-19T08:02:19.997Z,4.90
2018-08-19T08:04:49.077Z,4.60
2018-08-19T08:07:18.226Z,4.78
2018-08-19T08:09:47.369Z,4.85
2018-08-19T08:12:16.658Z,4.35
2018-08-19T08:14:51.091Z,4.45
2018-08-19T08:17:20.775Z,4.83
2018-08-19T08:19:55.258Z,4.95
2018-08-19T08:22:27.262Z,5.22
2018-08-19T08:24:57.149Z,4.85
2018-08-19T08:27:26.342Z,5.20
2018-08-19T08:29:55.634Z,4.80
2018-08-19T08:32:24.867Z,4.58
2018-08-19T08:34:54.014Z,4.47
2018-08-19T08:37:23.181Z,4.90
2018-08-19T08:40:00.707Z,4.47
2018-08-19T08:42:43.536Z,4.50
2018-08-19T08:45:16.923Z,4.45
2018-08-19T08:47:46.595Z,4.80
2018-08-19T08:50:15.575Z,5.10
2018-08-19T08:52:45.195Z,4.92
2018-08-19T08:55:14.465Z,4.80
2018-08-19T08:57:43.612Z,4.75
2018-08-19T09:00:14.006Z,4.42
2018-08-19T09:02:43.211Z,4.70
2018-08-19T09:05:12.817Z,4.15
2018-08-19T09:07:42.013Z,4.40
2018-08-19T09:10:13.190Z,5.22
2018-08-19T09:12:48.542Z,5.42
2018-08-19T09:15:17.697Z,4.78
2018-08-19T09:17:46.927Z,5.42
2018-08-19T09:20:16.088Z,5.10
2018-08-19T09:22:46.045Z,5.10
2018-08-19T09:25:15.157Z,5.12
2018-08-19T09:27:44.483Z,5.22
2018-08-19T09:30:21.932Z,5.22
2018-08-19T09:32:58.355Z,5.10
2018-08-19T09:35:29.609Z,4.87
2018-08-19T09:38:03.139Z,5.10
2018-08-19T09:40:33.080Z,5.03
2018-08-19T09:43:02.407Z,5.87
2018-08-19T09:45:31.859Z,5.17
2018-08-19T09:48:01.709Z,5.65
2018-08-19T09:50:31.337Z,5.12
2018-08-19T09:53:00.447Z,5.60
2018-08-19T09:55:35.031Z,5.85
2018-08-19T09:58:04.202Z,5.75
2018-08-19T10:00:38.909Z,6.30
2018-08-19T10:03:08.040Z,5.42
2018-08-19T10:05:37.244Z,5.20
2018-08-19T10:08:06.502Z,6.75
2018-08-19T10:10:36.697Z,5.85
2018-08-19T10:13:06.526Z,5.37
2018-08-19T10:15:36.388Z,5.58
2018-08-19T10:18:07.699Z,5.35
2018-08-19T10:20:36.909Z,5.20
2018-08-19T10:23:06.458Z,5.47
2018-08-19T10:25:36.428Z,5.95
2018-08-19T10:28:05.876Z,5.45
2018-08-19T10:30:34.989Z,5.95
2018-08-19T10:33:10.288Z,5.30
2018-08-19T10:35:39.633Z,6.40
2018-08-19T10:38:08.818Z,5.78
2018-08-19T10:40:37.855Z,6.00
2018-08-19T10:43:08.464Z,5.50
2018-08-19T10:45:39.037Z,5.97
2018-08-19T10:48:11.487Z,6.53
2018-08-19T10:50:40.664Z,6.17
2018-08-19T10:53:16.124Z,5.67
2018-08-19T10:55:46.367Z,5.85
2018-08-19T10:58:15.560Z,6.05
2018-08-19T11:00:44.593Z,5.78
2018-08-19T11:03:19.149Z,6.00
2018-08-19T11:05:49.843Z,5.78
2018-08-19T11:08:18.936Z,5.97
2018-08-19T11:10:48.090Z,6.12
2018-08-19T11:13:19.425Z,5.95
2018-08-19T11:15:51.006Z,5.50
2018-08-19T11:18:37.860Z,6.10
2018-08-19T11:21:09.199Z,6.55
2018-08-19T11:23:39.996Z,6.40
2018-08-19T11:26:10.030Z,5.72
2018-08-19T11:28:42.439Z,6.03
2018-08-19T11:31:19.787Z,6.78
2018-08-19T11:33:49.254Z,6.33
2018-08-19T11:36:18.385Z,6.03
2018-08-19T11:38:49.528Z,5.80
2018-08-19T11:41:18.737Z,6.08
2018-08-19T11:43:48.922Z,6.40
2018-08-19T11:46:17.985Z,6.10
2018-08-19T11:48:54.825Z,6.37
2018-08-19T11:51:38.097Z,6.35
2018-08-19T11:54:07.281Z,5.80
2018-08-19T11:56:36.254Z,6.37
2018-08-19T11:59:05.337Z,6.83
2018-08-19T12:01:34.426Z,6.55
2018-08-19T12:04:12.208Z,6.58
2018-08-19T12:06:41.315Z,6.37
2018-08-19T12:09:10.988Z,6.30
2018-08-19T12:11:41.939Z,6.67
2018-08-19T12:14:13.014Z,6.67
2018-08-19T12:16:48.330Z,6.05
2018-08-19T12:19:35.101Z,5.87
2018-08-19T12:22:05.261Z,6.45
2018-08-19T12:24:40.313Z,6.12
2018-08-19T12:27:18.312Z,6.22
2018-08-19T12:29:47.741Z,6.25
2018-08-19T12:32:26.672Z,5.90
2018-08-19T12:34:57.137Z,6.58
2018-08-19T12:37:27.350Z,6.70
2018-08-19T12:39:56.973Z,6.40
2018-08-19T12:42:26.459Z,5.30
2018-08-19T12:45:01.325Z,5.85
2018-08-19T12:47:30.348Z,6.50
2018-08-19T12:50:00.673Z,6.40
2018-08-19T12:52:30.982Z,6.28
2018-08-19T12:55:06.201Z,6.53
2018-08-19T12:57:36.194Z,6.25
2018-08-19T13:00:22.093Z,6.50
2018-08-19T13:02:52.134Z,6.53
2018-08-19T13:05:21.697Z,6.30
2018-08-19T13:07:51.333Z,6.62
2018-08-19T13:10:20.761Z,6.58
2018-08-19T13:12:54.238Z,6.90
2018-08-19T13:15:24.506Z,6.90
2018-08-19T13:17:53.576Z,6.70
2018-08-19T13:20:22.562Z,6.75
2018-08-19T13:22:57.046Z,6.83
2018-08-19T13:25:26.138Z,6.75
2018-08-19T13:27:55.199Z,6.53
2018-08-19T13:30:24.232Z,6.50
2018-08-19T13:32:53.509Z,6.40
2018-08-19T13:35:22.538Z,7.00
2018-08-19T13:37:51.854Z,6.95
2018-08-19T13:40:20.927Z,6.50
2018-08-19T13:42:49.952Z,6.42
2018-08-19T13:45:20.452Z,5.85
2018-08-19T13:47:51.934Z,5.70
2018-08-19T13:50:21.011Z,6.00
2018-08-19T13:52:50.060Z,6.47
2018-08-19T13:55:20.218Z,6.10
2018-08-19T13:57:49.321Z,6.03
2018-08-19T14:00:23.108Z,6.10
2018-08-19T14:02:52.300Z,5.67
2018-08-19T14:05:21.320Z,6.12
2018-08-19T14:07:50.679Z,6.17
2018-08-19T14:10:19.717Z,5.70
2018-08-19T14:12:48.766Z,6.45
2018-08-19T14:15:17.829Z,5.75
2018-08-19T14:17:46.852Z,6.37
2018-08-19T14:20:15.904Z,5.80
2018-08-19T14:22:44.940Z,6.10
2018-08-19T14:25:14.093Z,6.35
2018-08-19T14:27:43.150Z,6.30
2018-08-19T14:30:13.141Z,5.95
2018-08-19T14:32:43.491Z,6.05
2018-08-19T14:35:12.608Z,6.47
2018-08-19T14:37:42.042Z,5.72
2018-08-19T14:40:16.761Z,5.97
2018-08-19T14:42:45.993Z,6.42
2018-08-19T14:45:15.217Z,6.17
2018-08-19T14:47:44.308Z,5.80
2018-08-19T14:50:15.485Z,6.08
2018-08-19T14:52:44.985Z,6.33
2018-08-19T14:55:14.008Z,6.62
2018-08-19T14:57:43.288Z,6.28
2018-08-19T15:00:14.027Z,6.30
2018-08-19T15:02:43.206Z,6.12
2018-08-19T15:05:14.453Z,6.65
2018-08-19T15:07:43.599Z,5.55
2018-08-19T15:10:16.762Z,6.05
2018-08-19T15:12:45.765Z,6.25
2018-08-19T15:15:14.874Z,6.15
2018-08-19T15:17:49.318Z,5.80
2018-08-19T15:20:22.581Z,6.45
2018-08-19T15:22:52.068Z,6.47
2018-08-19T15:25:21.088Z,6.53
2018-08-19T15:27:53.216Z,6.28
2018-08-19T15:30:27.646Z,6.35
2018-08-19T15:32:57.029Z,6.40
2018-08-19T15:35:25.737Z,6.50
2018-08-19T15:37:54.792Z,6.92
2018-08-19T15:40:36.683Z,6.08
2018-08-19T15:43:05.789Z,6.92
2018-08-19T15:45:34.890Z,6.80
2018-08-19T15:48:04.774Z,6.35
2018-08-19T15:50:33.816Z,7.00
2018-08-19T15:53:03.998Z,6.78
2018-08-19T15:55:33.006Z,6.83
2018-08-19T15:58:03.345Z,7.37
2018-08-19T16:00:40.588Z,6.67
2018-08-19T16:03:10.978Z,6.22
2018-08-19T16:05:40.148Z,6.65
2018-08-19T16:08:09.285Z,7.08
2018-08-19T16:10:38.344Z,7.55
2018-08-19T16:13:09.997Z,6.72
2018-08-19T16:15:39.115Z,6.83
2018-08-19T16:18:08.628Z,6.92
2018-08-19T16:20:37.834Z,7.37
2018-08-19T16:23:06.848Z,7.42
2018-08-19T16:25:35.949Z,6.85
2018-08-19T16:28:05.328Z,7.20
2018-08-19T16:30:34.421Z,7.30
2018-08-19T16:33:03.522Z,7.00
2018-08-19T16:35:32.597Z,7.30
2018-08-19T16:38:01.609Z,7.40
2018-08-19T16:40:30.680Z,7.72
2018-08-19T16:42:59.738Z,7.12
2018-08-19T16:45:28.826Z,7.17
2018-08-19T16:47:57.882Z,6.70
2018-08-19T16:50:26.975Z,7.05
2018-08-19T16:52:55.980Z,7.10
2018-08-19T16:55:25.071Z,7.37
2018-08-19T16:57:54.129Z,7.83
2018-08-19T17:00:23.185Z,7.30
2018-08-19T17:02:52.325Z,6.92
2018-08-19T17:05:36.354Z,7.05
2018-08-19T17:08:05.790Z,7.28
2018-08-19T17:10:34.838Z,6.87
2018-08-19T17:13:03.903Z,7.35
2018-08-19T17:15:32.957Z,7.70
2018-08-19T17:18:02.003Z,7.53
2018-08-19T17:20:31.030Z,7.35
2018-08-19T17:23:00.097Z,7.58
2018-08-19T17:25:29.228Z,6.60
2018-08-19T17:28:04.317Z,6.83
2018-08-19T17:30:33.721Z,6.62
2018-08-19T17:33:10.987Z,6.83
2018-08-19T17:35:42.762Z,6.67
2018-08-19T17:38:12.217Z,6.75
2018-08-19T17:40:41.207Z,6.75
2018-08-19T17:43:10.227Z,6.20
2018-08-19T17:45:39.501Z,6.55
2018-08-19T17:48:08.461Z,6.78
2018-08-19T17:50:39.013Z,6.35
2018-08-19T17:53:08.271Z,6.20
2018-08-19T17:55:37.343Z,5.95
2018-08-19T17:58:06.548Z,6.60
2018-08-19T18:00:35.608Z,6.30
2018-08-19T18:03:04.656Z,5.75
2018-08-19T18:05:33.802Z,5.95
2018-08-19T18:08:02.744Z,6.45
2018-08-19T18:10:32.704Z,5.95
2018-08-19T18:13:01.673Z,6.70
2018-08-19T18:15:30.701Z,6.00
2018-08-19T18:18:05.976Z,8.50
2018-08-19T18:20:36.799Z,6.35
2018-08-19T18:23:12.833Z,5.90
2018-08-19T18:25:42.485Z,6.30
2018-08-19T18:28:16.581Z,5.67
2018-08-19T18:30:48.270Z,6.58
2018-08-19T18:33:17.266Z,5.97
2018-08-19T18:35:46.589Z,5.67
2018-08-19T18:38:30.611Z,6.65
2018-08-19T18:40:59.797Z,6.00
2018-08-19T18:43:28.802Z,6.58
2018-08-19T18:45:58.026Z,5.53
2018-08-19T18:48:26.958Z,6.50
2018-08-19T18:50:56.685Z,6.17
2018-08-19T18:53:27.697Z,6.40
2018-08-19T18:55:56.720Z,6.43
2018-08-19T18:58:25.844Z,5.77
2018-08-19T19:01:00.393Z,6.00
2018-08-19T19:03:29.475Z,5.97
2018-08-19T19:05:58.466Z,6.20
2018-08-19T19:08:27.449Z,5.90
2018-08-19T19:11:01.968Z,5.30
2018-08-19T19:13:31.023Z,6.22
2018-08-19T19:16:00.092Z,5.67
2018-08-19T19:18:29.243Z,5.90
2018-08-19T19:21:00.382Z,5.60
2018-08-19T19:23:33.968Z,6.00
2018-08-19T19:26:04.378Z,5.63
2018-08-19T19:28:33.592Z,5.73
2018-08-19T19:31:08.142Z,5.23
2018-08-19T19:33:37.431Z,5.83
2018-08-19T19:36:11.661Z,5.17
2018-08-19T19:38:59.017Z,5.43
2018-08-19T19:41:31.040Z,5.93
2018-08-19T19:44:33.360Z,6.03
2018-08-19T19:47:02.539Z,5.63
2018-08-19T19:49:31.663Z,6.90
2018-08-19T19:52:03.749Z,8.03
2018-08-19T19:54:33.930Z,6.07
2018-08-19T19:57:02.935Z,5.60
2018-08-19T19:59:33.812Z,6.80
2018-08-19T20:02:02.933Z,5.97
2018-08-19T20:04:34.922Z,5.57
2018-08-19T20:07:03.987Z,5.77
2018-08-19T20:09:35.333Z,5.93
2018-08-19T20:12:08.183Z,6.40
2018-08-19T20:14:41.853Z,5.73
2018-08-19T20:17:10.892Z,5.67
2018-08-19T20:19:39.948Z,7.03
2018-08-19T20:22:13.419Z,5.63
2018-08-19T20:24:42.595Z,6.70
2018-08-19T20:27:11.690Z,5.43
2018-08-19T20:29:40.789Z,5.40
2018-08-19T20:32:09.838Z,6.93
2018-08-19T20:34:38.859Z,5.50
2018-08-19T20:37:07.961Z,6.00
2018-08-19T20:39:37.020Z,5.50
2018-08-19T20:42:06.627Z,5.60
2018-08-19T20:44:37.572Z,6.20
2018-08-19T20:47:07.765Z,6.20
2018-08-19T20:49:36.812Z,5.67
2018-08-19T20:52:06.422Z,6.27
2018-08-19T20:54:35.500Z,5.70
2018-08-19T20:57:04.562Z,6.27
2018-08-19T20:59:36.289Z,6.53
2018-08-19T21:02:07.008Z,5.73
2018-08-19T21:04:36.095Z,5.90
2018-08-19T21:07:05.921Z,6.60
2018-08-19T21:09:35.933Z,6.70
2018-08-19T21:12:05.025Z,6.87
2018-08-19T21:14:34.109Z,7.80
2018-08-19T21:17:04.000Z,6.73
2018-08-19T21:19:34.172Z,6.47
2018-08-19T21:22:03.284Z,6.40
2018-08-19T21:24:32.364Z,6.40
2018-08-19T21:27:02.969Z,6.60
2018-08-19T21:29:32.579Z,6.40
2018-08-19T21:32:01.585Z,6.10
2018-08-19T21:34:30.912Z,6.23
2018-08-19T21:37:00.650Z,6.00
2018-08-19T21:39:30.286Z,6.57
2018-08-19T21:41:59.388Z,6.43
2018-08-19T21:44:28.376Z,6.90
2018-08-19T21:46:57.436Z,6.43
2018-08-19T21:49:26.440Z,6.33
2018-08-19T21:51:55.574Z,7.00
2018-08-19T21:54:24.551Z,6.47
2018-08-19T21:56:53.616Z,6.83
2018-08-19T21:59:24.611Z,6.60
2018-08-19T22:01:57.729Z,6.37
2018-08-19T22:04:27.054Z,6.67
2018-08-19T22:06:56.085Z,6.40
2018-08-19T22:09:30.909Z,6.53
2018-08-19T22:12:00.692Z,7.20
2018-08-19T22:14:30.445Z,7.00
2018-08-19T22:17:05.010Z,6.97
2018-08-19T22:19:34.064Z,6.73
2018-08-19T22:22:03.078Z,6.97
2018-08-19T22:24:32.196Z,7.10
2018-08-19T22:27:06.599Z,6.83
2018-08-19T22:29:35.891Z,6.67
2018-08-19T22:32:04.935Z,6.90
2018-08-19T22:34:33.982Z,7.30
2018-08-19T22:37:03.077Z,7.10
2018-08-19T22:39:32.169Z,7.50
2018-08-19T22:42:01.311Z,7.23
2018-08-19T22:44:30.313Z,7.00
2018-08-19T22:46:59.392Z,6.73
2018-08-19T22:49:28.940Z,6.73
2018-08-19T22:52:12.017Z,7.30
2018-08-19T22:54:41.024Z,7.57
2018-08-19T22:57:10.069Z,6.97
2018-08-19T22:59:39.091Z,6.87
2018-08-19T23:02:08.177Z,7.07
2018-08-19T23:04:37.192Z,6.80
2018-08-19T23:07:06.223Z,6.70
2018-08-19T23:09:35.296Z,6.93
2018-08-19T23:12:04.412Z,7.43
2018-08-19T23:26:11.208Z,7.33
2018-08-19T23:28:40.298Z,7.20
2018-08-19T23:31:09.407Z,7.17
2018-08-19T23:33:38.515Z,7.00
2018-08-19T23:36:07.619Z,6.50
2018-08-19T23:38:36.645Z,6.80
2018-08-19T23:41:05.896Z,7.43
2018-08-19T23:43:34.936Z,7.27
2018-08-19T23:46:03.982Z,7.07
2018-08-19T23:48:33.030Z,7.00
2018-08-19T23:51:02.029Z,7.10
2018-08-19T23:53:31.054Z,7.30
2018-08-19T23:56:00.112Z,7.13
2018-08-19T23:58:29.130Z,7.47
